Time,TemperatureF,DewpointF,PressureIn,WindDirection,WindDirectionDegrees,WindSpeedMPH,WindSpeedGustMPH,Humidity,HourlyPrecipIn,Conditions,Clouds,dailyrainin,SoftwareType,DateUTC
2013-02-16 00:22:00,59.0,43.0,30.21,North,9,1.0,-999.0,55,-99.99,,,-99.99,,2013-02-16 08:22:00,
2013-02-16 00:32:00,59.0,43.0,30.21,North,9,1.0,-999.0,55,-99.99,,,-99.99,,2013-02-16 08:32:00,
2013-02-16 00:42:00,59.0,43.0,30.21,North,9,1.0,-999.0,55,-99.99,,,-99.99,,2013-02-16 08:42:00,
2013-02-16 00:52:00,59.0,43.0,30.21,North,9,1.0,-999.0,55,-99.99,,,-99.99,,2013-02-16 08:52:00,
2013-02-16 01:01:00,59.0,43.0,30.21,North,9,1.0,-999.0,55,-99.99,,,-99.99,,2013-02-16 09:01:00,
2013-02-16 02:21:00,57.0,45.0,30.20,NW,313,2.0,-999.0,63,-99.99,,,-99.99,,2013-02-16 10:21:00,
2013-02-16 02:32:00,57.0,45.0,30.20,NW,313,2.0,-999.0,63,-99.99,,,-99.99,,2013-02-16 10:32:00,
2013-02-16 02:42:00,57.0,45.0,30.20,NW,313,2.0,-999.0,63,-99.99,,,-99.99,,2013-02-16 10:42:00,
2013-02-16 02:52:00,57.0,45.0,30.20,NW,313,2.0,-999.0,63,-99.99,,,-99.99,,2013-02-16 10:52:00,
2013-02-16 03:01:00,57.0,45.0,30.20,NW,313,2.0,-999.0,63,-99.99,,,-99.99,,2013-02-16 11:01:00,
2013-02-16 04:22:00,55.0,45.0,30.16,WNW,300,8.0,-999.0,68,-99.99,,,-99.99,,2013-02-16 12:22:00,
2013-02-16 04:32:00,55.0,45.0,30.16,WNW,300,8.0,-999.0,68,-99.99,,,-99.99,,2013-02-16 12:32:00,
2013-02-16 04:42:00,55.0,45.0,30.16,WNW,300,8.0,-999.0,68,-99.99,,,-99.99,,2013-02-16 12:42:00,
2013-02-16 04:52:00,55.0,45.0,30.16,WNW,300,8.0,-999.0,68,-99.99,,,-99.99,,2013-02-16 12:52:00,
2013-02-16 05:01:00,55.0,45.0,30.16,WNW,300,8.0,-999.0,68,-99.99,,,-99.99,,2013-02-16 13:01:00,
2013-02-16 06:21:00,53.0,45.0,30.16,NW,322,6.0,-999.0,74,-99.99,,,-99.99,,2013-02-16 14:21:00,
2013-02-16 06:32:00,53.0,45.0,30.16,NW,322,6.0,-999.0,74,-99.99,,,-99.99,,2013-02-16 14:32:00,
2013-02-16 06:42:00,53.0,45.0,30.16,NW,322,6.0,-999.0,74,-99.99,,,-99.99,,2013-02-16 14:42:00,
2013-02-16 06:52:00,53.0,45.0,30.16,NW,322,6.0,-999.0,74,-99.99,,,-99.99,,2013-02-16 14:52:00,
2013-02-16 07:01:00,53.0,45.0,30.16,NW,322,6.0,-999.0,74,-99.99,,,-99.99,,2013-02-16 15:01:00,
2013-02-16 08:22:00,53.0,46.0,30.17,ENE,78,4.0,-999.0,76,-99.99,,,-99.99,,2013-02-16 16:22:00,
2013-02-16 08:32:00,53.0,46.0,30.17,ENE,78,4.0,-999.0,76,-99.99,,,-99.99,,2013-02-16 16:32:00,
2013-02-16 08:42:00,53.0,46.0,30.17,ENE,78,4.0,-999.0,76,-99.99,,,-99.99,,2013-02-16 16:42:00,
2013-02-16 08:52:00,53.0,46.0,30.17,ENE,78,4.0,-999.0,76,-99.99,,,-99.99,,2013-02-16 16:52:00,
2013-02-16 09:01:00,53.0,46.0,30.17,ENE,78,4.0,-999.0,76,-99.99,,,-99.99,,2013-02-16 17:01:00,
2013-02-16 10:11:00,57.0,48.0,30.17,East,84,6.0,-999.0,71,-99.99,,,-99.99,,2013-02-16 18:11:00,
2013-02-16 10:22:00,57.0,48.0,30.17,East,84,6.0,-999.0,71,-99.99,,,-99.99,,2013-02-16 18:22:00,
2013-02-16 10:33:00,57.0,48.0,30.17,East,84,6.0,-999.0,71,-99.99,,,-99.99,,2013-02-16 18:33:00,
2013-02-16 10:42:00,57.0,48.0,30.17,East,84,6.0,-999.0,71,-99.99,,,-99.99,,2013-02-16 18:42:00,
2013-02-16 10:52:00,57.0,48.0,30.17,East,84,6.0,-999.0,71,-99.99,,,-99.99,,2013-02-16 18:52:00,
2013-02-16 11:01:00,57.0,48.0,30.17,East,84,6.0,-999.0,71,-99.99,,,-99.99,,2013-02-16 19:01:00,
2013-02-16 12:11:00,61.0,47.0,30.15,East,83,6.0,-999.0,60,-99.99,,,-99.99,,2013-02-16 20:11:00,
2013-02-16 12:22:00,61.0,47.0,30.15,East,83,6.0,-999.0,60,-99.99,,,-99.99,,2013-02-16 20:22:00,
2013-02-16 12:32:00,61.0,47.0,30.15,East,83,6.0,-999.0,60,-99.99,,,-99.99,,2013-02-16 20:32:00,
2013-02-16 12:42:00,61.0,47.0,30.15,East,83,6.0,-999.0,60,-99.99,,,-99.99,,2013-02-16 20:42:00,
2013-02-16 12:52:00,61.0,47.0,30.15,East,83,6.0,-999.0,60,-99.99,,,-99.99,,2013-02-16 20:52:00,
2013-02-16 13:01:00,61.0,47.0,30.15,East,83,6.0,-999.0,60,-99.99,,,-99.99,,2013-02-16 21:01:00,
2013-02-16 14:22:00,67.0,47.0,30.09,NE,34,0.0,-999.0,49,-99.99,,,-99.99,,2013-02-16 22:22:00,
2013-02-16 14:32:00,67.0,47.0,30.09,NE,34,0.0,-999.0,49,-99.99,,,-99.99,,2013-02-16 22:32:00,
2013-02-16 14:42:00,67.0,47.0,30.09,NE,34,0.0,-999.0,49,-99.99,,,-99.99,,2013-02-16 22:42:00,
2013-02-16 14:52:00,67.0,47.0,30.09,NE,34,0.0,-999.0,49,-99.99,,,-99.99,,2013-02-16 22:52:00,
2013-02-16 15:02:00,67.0,47.0,30.09,NE,34,0.0,-999.0,49,-99.99,,,-99.99,,2013-02-16 23:02:00,
2013-02-16 16:22:00,64.0,49.0,30.06,West,280,6.0,-999.0,58,-99.99,,,-99.99,,2013-02-17 00:22:00,
2013-02-16 16:32:00,64.0,49.0,30.06,West,280,6.0,-999.0,58,-99.99,,,-99.99,,2013-02-17 00:32:00,
2013-02-16 16:42:00,64.0,49.0,30.06,West,280,6.0,-999.0,58,-99.99,,,-99.99,,2013-02-17 00:42:00,
2013-02-16 16:52:00,64.0,49.0,30.06,West,280,6.0,-999.0,58,-99.99,,,-99.99,,2013-02-17 00:52:00,
2013-02-16 17:01:00,64.0,49.0,30.06,West,280,6.0,-999.0,58,-99.99,,,-99.99,,2013-02-17 01:01:00,
2013-02-16 18:21:00,52.0,47.0,30.06,ENE,78,7.0,-999.0,82,-99.99,,,-99.99,,2013-02-17 02:21:00,
2013-02-16 18:32:00,52.0,47.0,30.06,ENE,78,7.0,-999.0,82,-99.99,,,-99.99,,2013-02-17 02:32:00,
2013-02-16 18:42:00,52.0,47.0,30.06,ENE,78,7.0,-999.0,82,-99.99,,,-99.99,,2013-02-17 02:42:00,
2013-02-16 18:52:00,52.0,47.0,30.06,ENE,78,7.0,-999.0,82,-99.99,,,-99.99,,2013-02-17 02:52:00,
2013-02-16 19:01:00,52.0,47.0,30.06,ENE,78,7.0,-999.0,82,-99.99,,,-99.99,,2013-02-17 03:01:00,
2013-02-16 20:11:00,49.0,46.0,30.05,East,90,1.0,-999.0,91,-99.99,,,-99.99,,2013-02-17 04:11:00,
2013-02-16 20:21:00,49.0,46.0,30.05,East,90,1.0,-999.0,91,-99.99,,,-99.99,,2013-02-17 04:21:00,
2013-02-16 20:32:00,49.0,46.0,30.05,East,90,1.0,-999.0,91,-99.99,,,-99.99,,2013-02-17 04:32:00,
2013-02-16 20:42:00,49.0,46.0,30.05,East,90,1.0,-999.0,91,-99.99,,,-99.99,,2013-02-17 04:42:00,
2013-02-16 20:52:00,49.0,46.0,30.05,East,90,1.0,-999.0,91,-99.99,,,-99.99,,2013-02-17 04:52:00,
2013-02-16 21:01:00,49.0,46.0,30.05,East,90,1.0,-999.0,91,-99.99,,,-99.99,,2013-02-17 05:01:00,
2013-02-16 22:21:00,48.0,46.0,30.05,WSW,237,18.0,-999.0,94,-99.99,,,-99.99,,2013-02-17 06:21:00,
2013-02-16 22:32:00,48.0,46.0,30.05,WSW,237,18.0,-999.0,94,-99.99,,,-99.99,,2013-02-17 06:32:00,
2013-02-16 22:42:00,48.0,46.0,30.05,WSW,237,18.0,-999.0,94,-99.99,,,-99.99,,2013-02-17 06:42:00,
2013-02-16 22:52:00,48.0,46.0,30.05,WSW,237,18.0,-999.0,94,-99.99,,,-99.99,,2013-02-17 06:52:00,
2013-02-16 23:01:00,48.0,46.0,30.05,WSW,237,18.0,-999.0,94,-99.99,,,-99.99,,2013-02-17 07:01:00,